Time;durP1;ratioP1;P1;durP2;ratioP2;P2;SDS_P1;SDS_P2;PMS_P1;PMS_P2;Temp;Humidity;BMP_temperature;BMP_pressure;BME280_temperature;BME280_humidity;BME280_pressure;Samples;Min_cycle;Max_cycle;Signal;HPM_P1;HPM_P2
2022/10/03 00:02:23;;;;;;;2.53;2.30;;;;;;;16.48;65.38;94646.03;5002594;28;20206;-82
2022/10/03 00:05:04;;;;;;;2.30;2.10;;;;;;;16.47;65.46;94647.81;5020662;28;20187;-81
2022/10/03 00:07:49;;;;;;;2.40;2.10;;;;;;;16.23;65.62;94615.25;5020079;28;20557;-80
2022/10/03 00:10:28;;;;;;;2.73;2.53;;;;;;;16.45;65.55;94642.03;5020177;28;20551;-81
2022/10/03 00:13:07;;;;;;;5.47;2.27;;;;;;;16.37;65.71;94618.09;5018521;28;20203;-78
2022/10/03 00:15:41;;;;;;;2.43;2.23;;;;;;;16.40;65.73;94631.41;5019856;28;20193;-79
2022/10/03 00:18:25;;;;;;;1.93;1.80;;;;;;;16.38;65.97;94628.22;5019889;28;20196;-82
2022/10/03 00:21:07;;;;;;;3.33;2.23;;;;;;;16.36;65.95;94616.47;5021388;28;20262;-81
2022/10/03 00:23:46;;;;;;;2.90;2.30;;;;;;;16.33;66.04;94615.03;5020734;28;20185;-78
2022/10/03 00:26:30;;;;;;;2.97;1.90;;;;;;;16.30;66.07;94611.03;5020499;28;20199;-78
2022/10/03 00:29:15;;;;;;;3.80;2.57;;;;;;;16.11;66.10;94580.56;5009744;28;20255;-78
2022/10/03 00:31:53;;;;;;;2.27;2.13;;;;;;;16.28;66.21;94619.94;5009229;28;20204;-83
2022/10/03 00:34:31;;;;;;;2.40;2.20;;;;;;;16.26;66.39;94621.88;4997706;28;20201;-82
2022/10/03 00:37:20;;;;;;;3.60;2.43;;;;;;;16.14;66.23;94606.00;4992279;28;20184;-81
2022/10/03 00:40:15;;;;;;;3.00;2.10;;;;;;;16.22;66.43;94624.00;4989407;28;20229;-80
2022/10/03 00:43:10;;;;;;;2.83;2.30;;;;;;;16.20;66.63;94625.97;4950271;29;20191;-80
2022/10/03 00:46:06;;;;;;;2.30;2.10;;;;;;;16.18;66.77;94629.69;4950581;29;20202;-83
2022/10/03 00:49:16;;;;;;;3.20;2.60;;;;;;;16.12;66.83;94620.06;4950521;29;20190;-78
2022/10/03 00:51:56;;;;;;;2.37;2.17;;;;;;;16.13;67.06;94631.97;4950094;29;20190;-80
2022/10/03 00:54:44;;;;;;;2.40;2.20;;;;;;;16.12;67.08;94631.19;4950155;29;20206;-81
2022/10/03 00:57:27;;;;;;;2.43;2.20;;;;;;;16.09;66.92;94628.13;4950078;29;20716;-81
2022/10/03 01:00:14;;;;;;;3.40;2.10;;;;;;;16.08;67.14;94624.75;4949922;29;20234;-82
2022/10/03 01:02:54;;;;;;;2.20;2.00;;;;;;;16.06;67.03;94624.13;4949756;29;20198;-80
2022/10/03 01:05:35;;;;;;;2.60;2.20;;;;;;;16.05;67.13;94609.63;4949272;29;20624;-80
2022/10/03 01:08:24;;;;;;;2.80;2.17;;;;;;;16.04;67.21;94613.19;4950602;29;20186;-82
2022/10/03 01:10:59;;;;;;;3.50;2.07;;;;;;;15.98;67.43;94601.78;4950613;29;20245;-79
2022/10/03 01:13:36;;;;;;;2.20;2.00;;;;;;;16.01;67.48;94605.78;4950462;29;20638;-82
2022/10/03 01:16:17;;;;;;;2.60;2.23;;;;;;;15.97;67.45;94602.72;4948975;29;20201;-81
2022/10/03 01:18:56;;;;;;;2.47;2.23;;;;;;;15.98;67.44;94604.38;4956755;28;20194;-78
2022/10/03 01:21:33;;;;;;;3.07;2.20;;;;;;;15.96;67.46;94601.13;4997433;28;20227;-81
2022/10/03 01:24:35;;;;;;;2.73;2.40;;;;;;;15.96;67.58;94590.03;4993099;28;20204;-78
2022/10/03 01:27:04;;;;;;;5.60;2.33;;;;;;;15.89;67.48;94584.78;4956355;28;20697;-80
2022/10/03 01:32:38;;;;;;;2.97;2.53;;;;;;;15.87;67.73;94580.75;4979980;28;20197;-80
2022/10/03 01:35:21;;;;;;;2.90;2.20;;;;;;;15.85;67.79;94587.88;4980339;28;20204;-78
2022/10/03 01:37:54;;;;;;;2.93;2.60;;;;;;;15.87;67.73;94591.88;4970520;28;20218;-80
2022/10/03 01:40:28;;;;;;;2.50;2.27;;;;;;;15.85;67.87;94595.59;4952615;29;20232;-80
2022/10/03 01:43:05;;;;;;;2.50;2.30;;;;;;;15.76;67.91;94582.75;4960236;29;20822;-80
2022/10/03 01:45:42;;;;;;;2.70;2.50;;;;;;;15.82;67.94;94596.75;4954411;28;20587;-79
2022/10/03 01:48:16;;;;;;;3.00;2.50;;;;;;;15.78;68.03;94592.91;4954154;28;20206;-80
2022/10/03 01:51:00;;;;;;;4.03;2.40;;;;;;;15.78;68.09;94585.97;4958332;28;20204;-80
2022/10/03 01:53:38;;;;;;;2.27;2.13;;;;;;;15.79;68.01;94586.75;4969442;28;20204;-81
2022/10/03 01:56:12;;;;;;;3.10;2.80;;;;;;;15.73;68.10;94577.94;4968717;28;20196;-80
2022/10/03 01:58:49;;;;;;;2.50;2.30;;;;;;;15.75;68.15;94586.28;4967014;28;20206;-82
2022/10/03 02:01:29;;;;;;;3.27;2.73;;;;;;;15.73;68.49;94580.53;4968770;28;20242;-80
2022/10/03 02:04:05;;;;;;;2.87;2.57;;;;;;;15.72;68.41;94584.09;4988674;28;20666;-80
2022/10/03 02:06:46;;;;;;;2.47;2.27;;;;;;;15.70;68.40;94580.84;5009952;28;20224;-79
2022/10/03 02:09:29;;;;;;;5.80;2.53;;;;;;;15.65;68.47;94565.09;5008389;28;20204;-81
2022/10/03 02:12:07;;;;;;;2.57;2.37;;;;;;;15.68;68.50;94574.28;4990369;28;20197;-80
2022/10/03 02:14:41;;;;;;;3.03;2.33;;;;;;;15.66;68.57;94574.44;4990608;28;20193;-82
2022/10/03 02:17:21;;;;;;;2.87;2.63;;;;;;;15.64;68.62;94567.84;4995620;28;20185;-80
2022/10/03 02:19:56;;;;;;;2.27;2.10;;;;;;;15.61;68.64;94568.97;5009274;28;20271;-81
2022/10/03 02:22:33;;;;;;;2.30;2.10;;;;;;;15.62;68.60;94572.34;4990699;28;20191;-82
2022/10/03 02:25:18;;;;;;;2.60;2.40;;;;;;;15.48;68.78;94555.84;4991141;28;20401;-79
2022/10/03 02:28:12;;;;;;;3.87;2.60;;;;;;;15.61;68.76;94568.16;4995579;28;20757;-78
2022/10/03 02:30:53;;;;;;;2.30;2.00;;;;;;;15.51;68.78;94561.47;5005901;28;20202;-81
2022/10/03 02:33:54;;;;;;;2.57;2.37;;;;;;;15.58;68.83;94579.63;4995649;28;20186;-82
2022/10/03 02:36:51;;;;;;;2.87;2.57;;;;;;;15.55;68.98;94562.72;4997630;28;20185;-82
2022/10/03 02:40:03;;;;;;;3.67;2.50;;;;;;;15.57;68.86;94573.66;5000678;28;20225;-81
2022/10/03 02:43:03;;;;;;;4.30;2.47;;;;;;;15.54;68.95;94570.63;4928683;29;20273;-83
2022/10/03 02:46:01;;;;;;;3.50;2.60;;;;;;;15.56;68.89;94564.34;4937336;29;20563;-83
2022/10/03 02:48:59;;;;;;;2.60;2.20;;;;;;;15.56;68.98;94574.63;4879237;29;20673;-82
2022/10/03 02:51:49;;;;;;;2.60;2.37;;;;;;;15.56;68.97;94582.38;4879399;29;20201;-80
2022/10/03 02:55:04;;;;;;;3.63;2.60;;;;;;;15.57;69.05;94586.53;4886579;29;20201;-79
2022/10/03 02:58:08;;;;;;;2.70;2.07;;;;;;;15.57;68.92;94575.44;4880491;29;20215;-83
2022/10/03 03:00:58;;;;;;;3.80;2.63;;;;;;;15.55;69.00;94573.03;4879861;29;20256;-79
2022/10/03 03:04:07;;;;;;;3.70;2.27;;;;;;;15.56;68.90;94577.22;4878886;29;20593;-82
2022/10/03 03:06:57;;;;;;;2.13;1.87;;;;;;;15.52;68.85;94564.84;4823844;29;20210;-80
2022/10/03 03:09:53;;;;;;;5.77;2.40;;;;;;;15.57;68.91;94575.44;4827395;29;20195;-81
2022/10/03 03:12:58;;;;;;;5.07;2.43;;;;;;;15.56;68.90;94568.69;4831172;29;20214;-82
2022/10/03 03:16:15;;;;;;;2.73;2.17;;;;;;;15.56;68.98;94574.63;4793826;30;20207;-78
2022/10/03 03:18:52;;;;;;;6.77;2.20;;;;;;;15.51;68.80;94569.19;4828837;29;20206;-79
2022/10/03 03:21:29;;;;;;;2.87;2.53;;;;;;;15.56;68.96;94577.22;4839249;29;20717;-79
2022/10/03 03:24:25;;;;;;;3.80;2.33;;;;;;;15.49;68.92;94565.97;4838134;29;20202;-79
2022/10/03 03:27:47;;;;;;;2.93;2.73;;;;;;;15.56;68.86;94573.84;4820774;29;20195;-79
2022/10/03 03:30:18;;;;;;;6.03;2.20;;;;;;;15.55;68.98;94569.66;4823296;29;20588;-77
2022/10/03 03:33:08;;;;;;;6.93;2.63;;;;;;;15.54;68.87;94571.44;4832742;29;20202;-81
2022/10/03 03:35:48;;;;;;;3.17;2.30;;;;;;;15.54;68.91;94563.72;4842167;29;20202;-81
2022/10/03 03:38:29;;;;;;;8.33;3.07;;;;;;;15.56;68.98;94563.53;4844030;29;20294;-78
2022/10/03 03:41:11;;;;;;;6.57;2.40;;;;;;;15.51;68.86;94551.16;4868705;29;20367;-81
2022/10/03 03:43:54;;;;;;;4.73;2.60;;;;;;;15.55;68.85;94560.16;4881802;29;20197;-83
2022/10/03 03:46:37;;;;;;;2.60;2.20;;;;;;;15.52;68.86;94551.97;4880760;29;20236;-81
2022/10/03 03:49:30;;;;;;;2.83;2.27;;;;;;;15.55;68.79;94554.19;4911628;29;20199;-78
2022/10/03 03:52:11;;;;;;;3.67;2.20;;;;;;;15.50;68.87;94546.97;4936403;28;20665;-82
2022/10/03 03:54:58;;;;;;;2.87;2.30;;;;;;;15.55;69.01;94554.19;4972698;28;20256;-83
2022/10/03 03:57:44;;;;;;;3.13;2.33;;;;;;;15.53;69.02;94546.63;4970489;28;20313;-83
2022/10/03 04:00:16;;;;;;;7.33;2.13;;;;;;;15.50;68.90;94546.16;4972281;28;20190;-80
2022/10/03 04:03:00;;;;;;;3.90;2.50;;;;;;;15.52;68.93;94541.66;4976941;28;20196;-79
2022/10/03 04:05:49;;;;;;;2.60;2.40;;;;;;;15.52;69.10;94541.66;5016821;28;20286;-80
2022/10/03 04:08:34;;;;;;;4.07;2.70;;;;;;;15.50;68.99;94533.28;5003912;28;20196;-81
2022/10/03 04:11:20;;;;;;;3.87;2.40;;;;;;;15.50;69.03;94541.00;4996089;28;20193;-80
2022/10/03 04:14:22;;;;;;;3.17;2.53;;;;;;;15.41;68.89;94522.22;4995982;28;20196;-82
2022/10/03 04:20:12;;;;;;;4.53;2.43;;;;;;;15.48;69.14;94533.44;4997832;28;20262;-79
2022/10/03 04:23:03;;;;;;;4.47;2.80;;;;;;;15.48;68.90;94532.66;4999293;28;20240;-80
2022/10/03 04:25:46;;;;;;;6.23;2.70;;;;;;;15.47;69.22;94534.44;4996324;28;20189;-79
2022/10/03 04:28:33;;;;;;;5.17;2.70;;;;;;;15.46;68.98;94532.03;5005377;28;20197;-82
2022/10/03 04:31:13;;;;;;;3.47;2.40;;;;;;;15.44;68.95;94527.03;5006383;28;20191;-81
2022/10/03 04:33:54;;;;;;;4.20;2.20;;;;;;;15.52;69.16;94536.50;5004460;28;20264;-79
2022/10/03 04:37:04;;;;;;;3.63;2.43;;;;;;;15.47;68.81;94529.28;5013877;28;20232;-84
2022/10/03 04:39:39;;;;;;;6.40;3.07;;;;;;;15.56;69.14;94535.97;5011514;28;20228;-83
2022/10/03 04:42:14;;;;;;;3.20;2.87;;;;;;;15.44;69.09;94505.63;5011544;28;20227;-80
2022/10/03 04:45:00;;;;;;;7.13;2.60;;;;;;;15.61;69.06;94526.94;5017179;28;20206;-81
2022/10/03 04:47:32;;;;;;;3.33;2.37;;;;;;;15.65;69.02;94536.75;4996077;28;20199;-79
2022/10/03 04:50:07;;;;;;;3.63;2.70;;;;;;;15.57;69.12;94522.09;4995136;28;20192;-82
2022/10/03 04:52:40;;;;;;;3.17;2.40;;;;;;;15.64;69.03;94524.84;4992464;28;20219;-83
2022/10/03 04:55:22;;;;;;;6.53;3.20;;;;;;;15.73;68.89;94528.16;4991219;28;20189;-82
2022/10/03 04:57:56;;;;;;;4.57;2.73;;;;;;;15.73;68.83;94523.00;4994968;28;20189;-83
2022/10/03 05:00:32;;;;;;;4.83;2.63;;;;;;;15.52;68.74;94492.69;4992848;28;20196;-83
2022/10/03 05:03:07;;;;;;;4.20;3.07;;;;;;;15.74;68.72;94522.81;4993158;28;20196;-82
2022/10/03 05:05:50;;;;;;;5.60;2.57;;;;;;;15.85;68.63;94533.72;4991185;28;20201;-81
2022/10/03 05:08:33;;;;;;;8.47;2.90;;;;;;;16.06;90.01;94531.25;4974775;28;20247;-83
2022/10/03 05:11:15;;;;;;;7.53;2.93;;;;;;;16.42;92.02;94523.66;4991923;28;20189;-83
2022/10/03 05:13:53;;;;;;;2.37;2.17;;;;;;;16.68;92.33;94523.19;4990899;28;20555;-84
2022/10/03 05:16:32;;;;;;;4.60;1.97;;;;;;;16.74;91.00;94488.94;5002810;28;20192;-82
2022/10/03 05:19:21;;;;;;;3.73;2.27;;;;;;;16.75;86.11;94456.16;5010425;28;20184;-80
2022/10/03 05:21:55;;;;;;;3.30;2.33;;;;;;;17.17;83.52;94522.63;5009769;28;20212;-80
2022/10/03 05:24:34;;;;;;;3.87;2.73;;;;;;;16.83;81.60;94463.00;5001751;28;20693;-82
2022/10/03 05:27:13;;;;;;;6.50;3.03;;;;;;;17.17;79.75;94511.47;5011911;28;20204;-84
2022/10/03 05:29:44;;;;;;;6.27;2.70;;;;;;;17.14;78.57;94502.31;5008896;28;20583;-82
2022/10/03 05:32:23;;;;;;;6.27;2.57;;;;;;;17.11;79.35;94479.44;4992167;28;20203;-84
2022/10/03 05:35:06;;;;;;;3.23;2.50;;;;;;;17.21;77.35;94472.16;4994629;28;20203;-85
2022/10/03 05:38:09;;;;;;;5.10;2.83;;;;;;;17.59;76.52;94502.16;4992738;28;20201;-86
2022/10/03 05:40:40;;;;;;;8.77;2.97;;;;;;;17.51;75.69;94488.34;4909287;29;20600;-82
2022/10/03 05:43:24;;;;;;;5.57;3.10;;;;;;;17.63;74.68;94493.84;4912252;29;20665;-86
2022/10/03 05:46:01;;;;;;;5.00;3.10;;;;;;;17.42;73.54;94458.44;4926336;29;20670;-83
2022/10/03 05:48:51;;;;;;;6.80;2.97;;;;;;;17.45;72.25;94462.47;4930594;29;20320;-84
2022/10/03 05:51:42;;;;;;;4.83;2.53;;;;;;;17.81;71.06;94508.94;4928472;29;20213;-85
2022/10/03 05:54:50;;;;;;;9.97;3.33;;;;;;;17.85;70.06;94511.97;4929740;29;20202;-85
2022/10/03 05:57:59;;;;;;;6.07;3.90;;;;;;;17.92;69.31;94513.63;4892278;29;20308;-84
2022/10/03 06:00:37;;;;;;;8.47;3.07;;;;;;;17.72;68.50;94477.22;4818932;29;20606;-84
2022/10/03 06:03:45;;;;;;;9.97;3.50;;;;;;;17.96;67.98;94529.56;4817144;29;20239;-83
2022/10/03 06:06:33;;;;;;;13.43;3.93;;;;;;;18.01;67.65;94540.16;4761876;30;20882;-85
2022/10/03 06:09:29;;;;;;;9.33;4.10;;;;;;;18.02;67.12;94534.00;4761519;30;20250;-81
2022/10/03 06:12:02;;;;;;;7.80;3.53;;;;;;;17.92;67.03;94523.97;4763514;30;20205;-81
2022/10/03 06:14:57;;;;;;;7.00;4.10;;;;;;;17.95;66.51;94525.38;4766195;30;20236;-83
2022/10/03 06:17:54;;;;;;;9.80;4.23;;;;;;;18.04;66.44;94542.34;4803042;29;20213;-83
2022/10/03 06:20:50;;;;;;;6.37;3.40;;;;;;;18.05;66.19;94549.94;4839310;29;20272;-82
2022/10/03 06:24:11;;;;;;;10.07;4.10;;;;;;;17.99;66.03;94549.88;4840271;29;20398;-78
2022/10/03 06:27:09;;;;;;;8.10;3.40;;;;;;;18.00;65.76;94544.53;4825704;29;20212;-79
2022/10/03 06:30:10;;;;;;;7.30;3.70;;;;;;;17.91;65.79;94531.91;4819587;29;20203;-80
2022/10/03 06:33:12;;;;;;;9.70;3.60;;;;;;;17.94;65.33;94527.16;4783466;30;20715;-79
2022/10/03 06:36:11;;;;;;;6.83;3.30;;;;;;;18.12;65.10;94538.84;4819287;29;20211;-82
2022/10/03 06:39:10;;;;;;;7.17;3.50;;;;;;;18.21;64.81;94541.09;4874311;29;20273;-80
2022/10/03 06:42:27;;;;;;;6.53;3.17;;;;;;;18.31;64.53;94540.78;4874769;29;20338;-83
2022/10/03 06:45:27;;;;;;;6.93;3.40;;;;;;;18.40;64.55;94547.41;4875302;29;20658;-82
2022/10/03 06:48:21;;;;;;;4.17;3.23;;;;;;;18.49;63.98;94550.66;4868956;29;20204;-79
2022/10/03 06:50:56;;;;;;;9.30;3.37;;;;;;;18.52;63.68;94540.72;4880511;29;20197;-79
2022/10/03 06:53:56;;;;;;;5.23;3.13;;;;;;;18.59;63.59;94551.09;4885808;29;20398;-81
2022/10/03 06:57:06;;;;;;;10.43;4.33;;;;;;;18.64;63.36;94553.13;4893610;29;20200;-81
2022/10/03 07:00:03;;;;;;;6.03;4.03;;;;;;;18.62;63.25;94558.50;4915458;29;20188;-81
2022/10/03 07:03:11;;;;;;;7.97;3.60;;;;;;;18.60;63.03;94567.44;4918453;29;20235;-83
2022/10/03 07:06:14;;;;;;;5.97;3.50;;;;;;;18.53;63.10;94582.97;4895473;29;20200;-82
2022/10/03 07:09:12;;;;;;;10.77;4.43;;;;;;;18.47;63.15;94589.66;4958506;28;20304;-81
2022/10/03 07:12:18;;;;;;;10.53;3.90;;;;;;;18.37;63.33;94594.38;5003891;28;20619;-80
2022/10/03 07:15:08;;;;;;;7.50;3.70;;;;;;;18.29;63.52;94600.50;4892926;29;20206;-82
2022/10/03 07:18:05;;;;;;;7.77;4.27;;;;;;;18.21;63.60;94612.78;4892898;29;20911;-85
2022/10/03 07:21:24;;;;;;;5.13;3.87;;;;;;;18.10;64.05;94619.25;4855573;29;20205;-85
2022/10/03 07:24:18;;;;;;;11.43;3.90;;;;;;;18.01;64.43;94635.91;4867497;29;20698;-81
2022/10/03 07:27:29;;;;;;;8.33;4.30;;;;;;;17.91;64.80;94643.16;4862519;29;20237;-81
2022/10/03 07:30:16;;;;;;;23.20;5.43;;;;;;;17.80;65.43;94647.84;4808619;29;20740;-80
2022/10/03 07:33:24;;;;;;;13.50;5.37;;;;;;;17.72;66.09;94645.31;4813304;29;20220;-81
2022/10/03 07:39:32;;;;;;;8.83;5.70;;;;;;;17.54;67.08;94627.63;4806906;29;20332;-82
2022/10/03 07:42:27;;;;;;;9.17;6.03;;;;;;;17.52;67.69;94646.88;4802420;29;20231;-82
2022/10/03 07:45:29;;;;;;;11.23;5.40;;;;;;;17.46;67.98;94648.41;4810735;29;20211;-83
2022/10/03 07:48:12;;;;;;;10.37;5.60;;;;;;;17.50;68.13;94667.75;4810130;29;20202;-83
2022/10/03 07:50:56;;;;;;;7.03;4.73;;;;;;;17.50;68.52;94662.59;4812831;29;20218;-80
2022/10/03 07:53:49;;;;;;;7.60;4.47;;;;;;;17.52;68.75;94660.59;4897551;29;20204;-79
2022/10/03 07:56:36;;;;;;;7.87;4.10;;;;;;;17.54;68.82;94647.53;4904670;29;20263;-80
2022/10/03 07:59:57;;;;;;;8.00;3.90;;;;;;;17.58;68.93;94648.75;4899308;29;20231;-81
2022/10/03 08:02:47;;;;;;;5.67;3.70;;;;;;;17.58;68.78;94630.66;4900333;29;20236;-85
2022/10/03 08:05:35;;;;;;;9.83;3.77;;;;;;;17.66;68.86;94655.59;4905877;29;20208;-85
2022/10/03 08:08:17;;;;;;;8.00;4.00;;;;;;;17.68;69.29;94651.84;5008791;28;20235;-85
2022/10/03 08:11:24;;;;;;;6.87;3.77;;;;;;;17.69;69.35;94650.84;5007199;28;20196;-85
2022/10/03 08:14:07;;;;;;;4.70;3.70;;;;;;;17.69;69.70;94648.28;4917705;29;20191;-83
2022/10/03 08:17:03;;;;;;;7.93;3.47;;;;;;;17.41;69.78;94604.22;4913195;29;20788;-85
2022/10/03 08:19:58;;;;;;;4.43;3.53;;;;;;;17.70;70.27;94649.91;4920641;29;20207;-85
2022/10/03 08:22:40;;;;;;;7.83;3.30;;;;;;;17.71;70.55;94653.28;4905333;29;20358;-81
2022/10/03 08:25:26;;;;;;;13.23;3.83;;;;;;;17.69;71.43;94657.81;4916364;29;20203;-83
2022/10/03 08:28:25;;;;;;;6.87;3.70;;;;;;;17.62;72.71;94655.16;4922382;29;20286;-81
2022/10/03 08:31:19;;;;;;;6.50;3.37;;;;;;;17.62;73.01;94665.50;4916808;29;20202;-81
2022/10/03 08:34:14;;;;;;;11.17;3.43;;;;;;;17.61;72.91;94653.53;4921584;29;20200;-81
2022/10/03 08:37:06;;;;;;;6.37;3.30;;;;;;;17.69;72.67;94665.56;4918223;28;20188;-82
2022/10/03 08:39:47;;;;;;;4.27;2.80;;;;;;;17.74;72.24;94664.06;4916268;29;21047;-79
2022/10/03 08:43:06;;;;;;;4.90;2.67;;;;;;;17.81;72.24;94661.56;4916838;29;20707;-79
2022/10/03 08:45:56;;;;;;;4.17;2.70;;;;;;;17.93;72.01;94669.66;4919379;29;20206;-80
2022/10/03 08:49:05;;;;;;;4.73;2.70;;;;;;;18.01;71.79;94654.81;4919117;29;20203;-79
2022/10/03 08:51:59;;;;;;;5.13;2.97;;;;;;;18.22;71.47;94673.91;4984770;28;20204;-80
2022/10/03 08:54:53;;;;;;;2.77;2.03;;;;;;;18.36;71.24;94667.88;5008040;28;20196;-78
2022/10/03 08:57:50;;;;;;;4.23;2.40;;;;;;;18.53;70.75;94671.00;5003669;28;20207;-80
2022/10/03 09:00:20;;;;;;;3.77;2.17;;;;;;;18.64;70.32;94673.06;5008462;28;20706;-82
2022/10/03 09:03:39;;;;;;;3.60;2.27;;;;;;;18.85;69.95;94674.06;5007477;28;20342;-84
2022/10/03 09:06:32;;;;;;;4.07;2.07;;;;;;;18.94;69.86;94675.50;5005475;28;20192;-80
2022/10/03 09:09:38;;;;;;;2.33;2.03;;;;;;;19.15;69.37;94682.44;5003492;28;20660;-82
2022/10/03 09:12:34;;;;;;;2.83;2.00;;;;;;;19.23;68.98;94679.69;4936538;29;20206;-81
2022/10/03 09:15:24;;;;;;;2.10;2.00;;;;;;;19.38;68.54;94693.31;4937826;29;20195;-83
2022/10/03 09:18:45;;;;;;;2.47;1.70;;;;;;;19.51;68.35;94679.63;4902695;29;20207;-80
2022/10/03 09:21:40;;;;;;;3.13;2.20;;;;;;;19.67;68.00;94687.09;4844982;29;20964;-81
2022/10/03 09:24:36;;;;;;;3.20;1.70;;;;;;;19.81;67.73;94690.53;4849868;29;20190;-83
2022/10/03 09:27:35;;;;;;;5.40;2.33;;;;;;;19.87;67.39;94682.00;4842494;29;20749;-82
2022/10/03 09:30:18;;;;;;;2.77;1.80;;;;;;;19.85;67.11;94670.19;4840688;29;20213;-80
2022/10/03 09:33:11;;;;;;;1.80;1.70;;;;;;;19.99;66.71;94677.00;4843843;29;20714;-81
2022/10/03 09:36:03;;;;;;;2.43;1.90;;;;;;;20.12;66.35;94679.66;4843011;29;20653;-84
2022/10/03 09:39:05;;;;;;;2.00;1.70;;;;;;;20.12;65.77;94664.09;4841148;29;20230;-82
2022/10/03 09:41:59;;;;;;;1.83;1.70;;;;;;;20.34;65.81;94680.28;4840406;29;20206;-81
2022/10/03 09:44:44;;;;;;;1.70;1.60;;;;;;;20.47;65.42;94677.72;4837392;29;20765;-85
2022/10/03 09:47:43;;;;;;;1.65;1.55;;;;;;;20.59;64.94;94684.94;4842997;29;20752;-84
2022/10/03 09:50:50;;;;;;;2.33;1.83;;;;;;;20.67;64.86;94685.53;4875365;29;21141;-83
2022/10/03 09:53:41;;;;;;;2.03;1.83;;;;;;;20.73;64.70;94689.16;4927167;29;20209;-82
2022/10/03 09:56:48;;;;;;;2.13;1.80;;;;;;;20.77;64.30;94695.53;4996584;28;20200;-84
2022/10/03 09:59:41;;;;;;;2.95;1.77;;;;;;;20.72;64.15;94672.72;4929263;29;20206;-84
2022/10/03 10:02:36;;;;;;;3.38;1.73;;;;;;;20.92;63.47;94687.53;4930434;29;20682;-86
2022/10/03 10:05:33;;;;;;;2.65;1.55;;;;;;;21.01;63.15;94676.69;4928092;29;20214;-83
2022/10/03 10:08:27;;;;;;;4.60;1.80;;;;;;;21.01;62.88;94653.31;4926269;29;20604;-89
2022/10/03 10:11:18;;;;;;;1.75;1.65;;;;;;;21.11;62.64;94647.66;4930545;29;20195;-82
2022/10/03 10:14:23;;;;;;;1.80;1.70;;;;;;;21.32;61.89;94664.88;4930561;29;20286;-84
2022/10/03 10:17:36;;;;;;;1.58;1.48;;;;;;;21.39;61.38;94657.06;4928772;29;20203;-86
2022/10/03 10:20:31;;;;;;;2.80;1.70;;;;;;;21.64;60.63;94676.19;4935534;29;20199;-85
2022/10/03 10:23:17;;;;;;;3.00;1.45;;;;;;;21.80;60.09;94667.09;4914986;29;20234;-87
2022/10/03 10:26:19;;;;;;;2.33;1.60;;;;;;;21.83;59.37;94651.06;4930816;29;20195;-82
2022/10/03 10:29:19;;;;;;;2.63;1.48;;;;;;;22.00;59.02;94659.19;4880782;29;20203;-82
2022/10/03 10:32:24;;;;;;;1.75;1.50;;;;;;;22.14;58.34;94659.94;4881345;29;20240;-81
2022/10/03 10:35:27;;;;;;;3.80;1.60;;;;;;;22.26;57.66;94666.06;4883785;29;20576;-82
2022/10/03 10:38:22;;;;;;;2.42;1.50;;;;;;;22.31;57.41;94666.22;4938030;29;20232;-82
2022/10/03 10:41:36;;;;;;;2.10;1.60;;;;;;;22.48;56.61;94679.53;4943847;29;20250;-84
2022/10/03 10:44:54;;;;;;;1.60;1.50;;;;;;;22.52;56.46;94668.47;4944339;29;20219;-83
2022/10/03 10:47:54;;;;;;;1.58;1.35;;;;;;;22.62;55.83;94675.03;4947991;29;20709;-80
2022/10/03 10:50:57;;;;;;;1.20;1.20;;;;;;;22.65;55.73;94675.41;4941015;29;20593;-86
2022/10/03 10:54:07;;;;;;;3.03;1.40;;;;;;;22.67;55.23;94670.00;4957709;29;20611;-88
2022/10/03 10:57:01;;;;;;;1.38;1.27;;;;;;;22.58;55.27;94669.44;4958748;29;20230;-81
2022/10/03 11:00:28;;;;;;;3.50;1.38;;;;;;;22.66;55.00;94677.00;4939454;29;20206;-85
2022/10/03 11:03:36;;;;;;;1.50;1.30;;;;;;;22.65;54.84;94674.59;4887238;29;20638;-85
2022/10/03 11:06:53;;;;;;;1.40;1.40;;;;;;;22.57;54.39;94674.88;4919490;29;20234;-82
2022/10/03 11:09:46;;;;;;;1.27;1.27;;;;;;;22.47;54.42;94678.75;4947159;29;20573;-82
2022/10/03 11:12:59;;;;;;;1.20;1.20;;;;;;;22.36;54.20;94662.97;4950166;29;20209;-86
2022/10/03 11:16:06;;;;;;;1.20;1.20;;;;;;;22.32;54.27;94674.84;4947834;29;20603;-84
2022/10/03 11:19:15;;;;;;;1.48;1.48;;;;;;;22.21;54.73;94671.91;4949419;29;20200;-87
2022/10/03 11:22:14;;;;;;;1.80;1.70;;;;;;;22.09;54.69;94672.75;4947916;29;20613;-82
2022/10/03 11:25:28;;;;;;;1.48;1.38;;;;;;;21.70;54.82;94633.69;4876764;29;20305;-83
2022/10/03 11:28:45;;;;;;;1.80;1.42;;;;;;;21.91;54.45;94679.47;4872585;29;20215;-81
2022/10/03 11:31:49;;;;;;;1.42;1.33;;;;;;;21.82;54.65;94678.09;4872735;29;20208;-83
2022/10/03 11:34:43;;;;;;;1.88;1.77;;;;;;;21.71;54.73;94679.53;4921886;29;20254;-79
2022/10/03 11:37:25;;;;;;;4.35;1.77;;;;;;;21.66;54.91;94676.75;4933463;29;20204;-80
2022/10/03 11:40:05;;;;;;;2.00;1.90;;;;;;;21.63;55.49;94674.59;4939426;29;20202;-83
2022/10/03 11:42:49;;;;;;;1.92;1.80;;;;;;;21.61;55.91;94673.97;4941063;29;20209;-81
2022/10/03 11:45:25;;;;;;;2.33;1.85;;;;;;;21.51;56.18;94656.22;4951117;29;20198;-80
2022/10/03 11:48:04;;;;;;;3.25;1.98;;;;;;;21.51;56.53;94658.81;4948806;29;20206;-81
2022/10/03 11:50:46;;;;;;;3.28;2.15;;;;;;;21.39;56.80;94636.25;4933894;29;20703;-79
2022/10/03 11:53:40;;;;;;;2.20;2.00;;;;;;;21.69;57.12;94662.53;4934008;29;20206;-81
2022/10/03 11:56:19;;;;;;;2.40;2.20;;;;;;;;;;4947020;29;20222;-84
2022/10/03 11:59:00;;;;;;;5.32;2.20;;;;;;;21.31;57.22;94600.81;4949276;29;20242;-83
2022/10/03 12:01:45;;;;;;;2.30;2.10;;;;;;;21.79;57.44;94665.50;4979033;28;20274;-80
2022/10/03 12:04:23;;;;;;;3.28;2.15;;;;;;;21.70;57.43;94654.53;5025433;28;20294;-81
2022/10/03 12:10:00;;;;;;;3.28;2.10;;;;;;;21.64;57.72;94662.38;5018660;28;20231;-84
2022/10/03 12:12:35;;;;;;;2.63;2.28;;;;;;;21.61;57.67;94668.78;5013700;28;20196;-89
2022/10/03 12:15:21;;;;;;;4.68;2.90;;;;;;;21.56;57.76;94663.41;5010613;28;20198;-83
2022/10/03 12:18:00;;;;;;;5.57;2.47;;;;;;;21.48;58.15;94667.03;5019977;28;20195;-81
2022/10/03 12:20:37;;;;;;;2.58;2.38;;;;;;;21.35;58.23;94658.47;5012833;28;20196;-88
2022/10/03 12:23:21;;;;;;;3.67;2.90;;;;;;;21.36;58.06;94671.25;5010442;28;20226;-84
2022/10/03 12:25:53;;;;;;;3.17;2.88;;;;;;;21.20;58.11;94638.69;5008533;28;20197;-81
2022/10/03 12:28:24;;;;;;;2.78;2.58;;;;;;;21.36;58.06;94658.25;5007770;28;20195;-83
2022/10/03 12:30:55;;;;;;;2.97;2.78;;;;;;;21.44;57.91;94649.41;5013314;28;20196;-84
2022/10/03 12:33:33;;;;;;;2.90;2.70;;;;;;;21.22;57.54;94610.63;5012106;28;20224;-87
2022/10/03 12:36:09;;;;;;;3.88;2.97;;;;;;;21.35;57.11;94619.44;5009417;28;20249;-81
2022/10/03 12:38:55;;;;;;;3.03;2.83;;;;;;;21.27;56.67;94597.81;5011155;28;20230;-82
2022/10/03 12:41:42;;;;;;;3.90;2.90;;;;;;;21.60;56.78;94645.56;5009879;28;20246;-82
2022/10/03 12:44:19;;;;;;;4.00;2.70;;;;;;;21.50;56.84;94612.97;5010809;28;20238;-84
2022/10/03 12:46:57;;;;;;;3.25;2.95;;;;;;;21.69;56.40;94645.13;5008073;28;20278;-82
2022/10/03 12:49:41;;;;;;;3.10;2.90;;;;;;;21.69;56.48;94645.13;5009009;28;20552;-82
2022/10/03 12:52:21;;;;;;;3.55;2.85;;;;;;;21.66;56.32;94655.13;5010685;28;20200;-80
2022/10/03 12:54:55;;;;;;;3.13;2.90;;;;;;;21.42;56.36;94628.81;5012074;28;20258;-83
2022/10/03 12:57:54;;;;;;;2.95;2.75;;;;;;;21.57;56.26;94645.97;5013902;28;20193;-82
2022/10/03 13:00:26;;;;;;;3.03;2.83;;;;;;;21.60;56.34;94653.38;5015932;28;20204;-83
2022/10/03 13:03:17;;;;;;;3.10;2.90;;;;;;;21.60;56.31;94655.97;5017078;28;20187;-84
2022/10/03 13:06:16;;;;;;;3.45;3.25;;;;;;;21.59;56.18;94654.34;5013891;28;20261;-85
2022/10/03 13:09:00;;;;;;;3.63;3.33;;;;;;;21.27;56.03;94599.63;5008981;28;20904;-81
2022/10/03 13:11:35;;;;;;;3.10;2.90;;;;;;;21.64;55.61;94662.38;5006512;28;20196;-80
2022/10/03 13:14:16;;;;;;;3.38;3.15;;;;;;;21.64;55.05;94655.34;5005913;28;20196;-81
2022/10/03 13:16:58;;;;;;;6.07;3.38;;;;;;;21.30;54.36;94604.41;5005438;28;20202;-81
2022/10/03 13:19:28;;;;;;;3.30;3.10;;;;;;;21.66;54.38;94648.13;5005202;28;20192;-81
2022/10/03 13:22:05;;;;;;;3.08;2.88;;;;;;;21.69;54.26;94652.13;5005179;28;20196;-82
2022/10/03 13:24:40;;;;;;;3.20;2.90;;;;;;;21.70;53.80;94656.31;5008873;28;20219;-81
2022/10/03 13:27:33;;;;;;;3.97;3.08;;;;;;;21.70;53.59;94656.31;5009248;28;20552;-83
2022/10/03 13:30:06;;;;;;;3.10;2.90;;;;;;;21.68;53.61;94640.13;5007921;28;20182;-83
2022/10/03 13:32:39;;;;;;;3.10;2.90;;;;;;;21.66;53.64;94655.13;5009126;28;20188;-84